Terminal Aerodrome Forecast
Issued by NWS

Home | Current Version | Previous Version | Text Only | Print | Product List | Glossary On
Versions: 1 2 3 4 5 6 7 8 9 10 11 12 13 14 15 16 17 18 19 20 21 22 23 24 25 26 27 28 29
778
FTUS43 KILX 021124
TAFBMI
TAF
KBMI 021124Z 0212/0312 01010KT 5SM BR OVC003
     FM021600 02008KT P6SM OVC010
     FM022000 02010KT P6SM VCSH OVC020
     FM030200 36005KT P6SM BKN035
     FM030600 34005KT P6SM SCT120=

USA.gov is the U.S. government's official web portal to all federal, state and local government web resources and services.